Time;durP1;ratioP1;P1;durP2;ratioP2;P2;SDS_P1;SDS_P2;PMS_P1;PMS_P2;Temp;Humidity;BMP_temperature;BMP_pressure;BME280_temperature;BME280_humidity;BME280_pressure;Samples;Min_cycle;Max_cycle;Signal;HPM_P1;HPM_P2
2022/10/17 00:01:57;;;;;;;;;;;;;;;5.50;68.80;101097.13;1695711;84;20245;-80
2022/10/17 00:04:24;;;;;;;;;;;;;;;5.46;68.75;101096.62;1695778;84;20222;-80
2022/10/17 00:06:51;;;;;;;;;;;;;;;5.42;68.87;101098.33;1695563;84;20214;-80
2022/10/17 00:09:19;;;;;;;;;;;;;;;5.38;69.14;101105.69;1695747;84;20207;-80
2022/10/17 00:11:46;;;;;;;;;;;;;;;5.32;69.39;101099.95;1695632;84;20139;-80
2022/10/17 00:14:13;;;;;;;;;;;;;;;5.27;69.58;101105.98;1695920;84;20329;-81
2022/10/17 00:16:40;;;;;;;;;;;;;;;5.21;69.87;101106.34;1695730;84;20234;-81
2022/10/17 00:19:07;;;;;;;;;;;;;;;5.16;69.99;101111.04;1695693;84;20205;-81
2022/10/17 00:21:34;;;;;;;;;;;;;;;5.08;70.29;101110.95;1695638;84;20214;-81
2022/10/17 00:24:01;;;;;;;;;;;;;;;5.01;70.55;101113.91;1695658;84;21153;-81
2022/10/17 00:26:28;;;;;;;;;;;;;;;4.96;70.78;101110.77;1695809;84;20182;-81
2022/10/17 00:28:55;;;;;;;;;;;;;;;4.91;71.02;101107.22;1695838;84;20246;-79
2022/10/17 00:31:23;;;;;;;;;;;;;;;4.87;71.11;101106.73;1695894;84;20178;-81
2022/10/17 00:33:50;;;;;;;;;;;;;;;4.83;71.35;101109.30;1695604;84;20210;-80
2022/10/17 00:36:21;;;;;;;;;;;;;;;4.80;71.53;101114.90;1695714;84;21156;-80
2022/10/17 00:38:50;;;;;;;;;;;;;;;4.77;71.80;101107.89;1695755;84;20135;-81
2022/10/17 00:41:18;;;;;;;;;;;;;;;4.76;71.81;101110.07;1696215;84;20727;-81
2022/10/17 00:43:49;;;;;;;;;;;;;;;4.75;71.79;101109.61;1695833;84;20190;-80
2022/10/17 00:46:15;;;;;;;;;;;;;;;4.74;71.83;101108.28;1696216;84;20205;-80
2022/10/17 00:48:43;;;;;;;;;;;;;;;4.73;71.95;101106.11;1695829;84;21160;-81
2022/10/17 00:51:09;;;;;;;;;;;;;;;4.72;71.88;101101.73;1696043;84;20213;-81
2022/10/17 00:53:36;;;;;;;;;;;;;;;4.72;71.96;101103.04;1695826;84;20156;-81
2022/10/17 00:56:03;;;;;;;;;;;;;;;4.73;72.24;101103.50;1696277;84;20483;-81
2022/10/17 00:58:30;;;;;;;;;;;;;;;4.72;72.16;101101.73;1695857;84;20234;-81
2022/10/17 01:00:58;;;;;;;;;;;;;;;4.70;72.38;101095.63;1696135;84;21126;-81
2022/10/17 01:03:26;;;;;;;;;;;;;;;4.67;72.43;101098.19;1695668;84;20238;-81
2022/10/17 01:05:53;;;;;;;;;;;;;;;4.67;72.54;101094.71;1695833;84;20147;-80
2022/10/17 01:08:19;;;;;;;;;;;;;;;4.66;72.83;101100.36;1695844;84;20245;-80
2022/10/17 01:11:07;;;;;;;;;;;;;;;4.67;72.82;101099.92;1674158;84;20490;-80
2022/10/17 01:13:40;;;;;;;;;;;;;;;4.66;72.71;101100.36;1695746;84;21245;-80
2022/10/17 01:16:16;;;;;;;;;;;;;;;4.68;72.95;101101.25;1695744;83;21050;-81
2022/10/17 01:18:48;;;;;;;;;;;;;;;4.69;73.01;101093.89;1695939;84;20202;-80
2022/10/17 01:21:21;;;;;;;;;;;;;;;4.72;73.06;101092.61;1695267;84;20279;-81
2022/10/17 01:24:03;;;;;;;;;;;;;;;4.75;72.88;101092.66;1695987;84;20222;-80
2022/10/17 01:26:40;;;;;;;;;;;;;;;4.76;72.80;101086.60;1696616;84;21570;-81
2022/10/17 01:29:10;;;;;;;;;;;;;;;4.79;72.65;101091.87;1695982;84;20230;-80
2022/10/17 01:31:40;;;;;;;;;;;;;;;4.80;72.49;101092.30;1696012;84;20221;-80
2022/10/17 01:34:13;;;;;;;;;;;;;;;4.83;72.37;101087.13;1695883;84;20221;-80
2022/10/17 01:36:46;;;;;;;;;;;;;;;4.83;72.35;101094.95;1695338;84;20252;-80
2022/10/17 01:39:16;;;;;;;;;;;;;;;4.84;72.18;101100.63;1695876;84;21069;-80
2022/10/17 01:41:53;;;;;;;;;;;;;;;4.86;72.12;101094.14;1695539;84;20440;-80
2022/10/17 01:44:22;;;;;;;;;;;;;;;4.89;71.97;101086.33;1695905;84;20238;-80
2022/10/17 01:46:49;;;;;;;;;;;;;;;4.90;72.04;101085.92;1695771;84;20312;-80
2022/10/17 01:49:18;;;;;;;;;;;;;;;4.92;71.98;101078.98;1695328;84;20226;-81
2022/10/17 01:51:46;;;;;;;;;;;;;;;4.92;71.88;101085.07;1695749;84;21147;-80
2022/10/17 01:54:24;;;;;;;;;;;;;;;4.94;71.95;101081.19;1695796;84;20426;-80
2022/10/17 01:56:54;;;;;;;;;;;;;;;4.98;71.99;101080.39;1695593;84;20190;-80
2022/10/17 01:59:22;;;;;;;;;;;;;;;5.00;71.92;101077.36;1695870;84;20199;-82
2022/10/17 02:01:51;;;;;;;;;;;;;;;4.99;71.97;101064.77;1695936;84;20525;-80
2022/10/17 02:04:17;;;;;;;;;;;;;;;4.99;71.92;101068.67;1695973;84;21167;-80
2022/10/17 02:06:44;;;;;;;;;;;;;;;5.00;71.89;101070.84;1695866;84;20199;-81
2022/10/17 02:09:18;;;;;;;;;;;;;;;5.00;71.85;101066.93;1695817;83;20202;-81
2022/10/17 02:12:09;;;;;;;;;;;;;;;5.01;71.69;101072.17;1696060;84;21013;-81
2022/10/17 02:14:42;;;;;;;;;;;;;;;5.00;71.66;101063.88;1695980;84;20209;-81
2022/10/17 02:17:32;;;;;;;;;;;;;;;4.99;71.51;101074.30;1695858;84;21177;-81
2022/10/17 02:20:21;;;;;;;;;;;;;;;4.97;71.54;101083.84;1695642;84;20254;-81
2022/10/17 02:23:04;;;;;;;;;;;;;;;4.95;71.51;101085.56;1668899;86;20490;-80
2022/10/17 02:25:36;;;;;;;;;;;;;;;4.91;71.71;101089.86;1690692;84;20206;-80
2022/10/17 02:28:16;;;;;;;;;;;;;;;4.90;71.77;101092.45;1695782;84;20201;-82
2022/10/17 02:31:04;;;;;;;;;;;;;;;4.85;71.88;101085.85;1695939;84;21171;-79
2022/10/17 02:33:38;;;;;;;;;;;;;;;4.79;71.98;101080.13;1695859;84;20127;-79
2022/10/17 02:36:08;;;;;;;;;;;;;;;4.75;72.18;101082.23;1695366;84;20179;-80
2022/10/17 02:38:34;;;;;;;;;;;;;;;4.71;72.31;101085.66;1707729;84;20142;-80
2022/10/17 02:41:00;;;;;;;;;;;;;;;4.70;72.60;101078.68;1708403;84;20206;-79
2022/10/17 02:43:28;;;;;;;;;;;;;;;4.69;72.57;101075.64;1708483;82;21776;-80
2022/10/17 02:45:55;;;;;;;;;;;;;;;4.68;72.71;101067.80;1708116;84;20193;-81
2022/10/17 02:48:31;;;;;;;;;;;;;;;4.66;72.75;101078.20;1708270;82;20171;-79
2022/10/17 02:51:13;;;;;;;;;;;;;;;4.67;72.87;101078.63;1708228;84;20222;-81
2022/10/17 02:53:54;;;;;;;;;;;;;;;4.71;72.80;101074.33;1708044;82;20131;-79
2022/10/17 02:56:20;;;;;;;;;;;;;;;4.70;72.86;101073.47;1708503;84;21166;-79
2022/10/17 02:58:52;;;;;;;;;;;;;;;4.71;72.85;101073.93;1708159;84;20238;-81
2022/10/17 03:01:18;;;;;;;;;;;;;;;4.71;72.90;101071.73;1708764;84;20177;-82
2022/10/17 03:03:45;;;;;;;;;;;;;;;4.71;73.01;101077.84;1708451;84;20539;-79
2022/10/17 03:06:11;;;;;;;;;;;;;;;4.69;73.11;101086.48;1708277;84;20205;-81
2022/10/17 03:08:38;;;;;;;;;;;;;;;4.67;73.19;101087.75;1708254;84;21157;-82
2022/10/17 03:11:04;;;;;;;;;;;;;;;4.68;73.27;101089.52;1708353;84;20205;-80
2022/10/17 03:13:32;;;;;;;;;;;;;;;4.67;73.21;101082.55;1708378;84;20177;-81
2022/10/17 03:16:00;;;;;;;;;;;;;;;4.68;73.20;101089.96;1708355;84;21012;-81
2022/10/17 03:18:27;;;;;;;;;;;;;;;4.68;73.28;101105.17;1708377;84;20570;-81
2022/10/17 03:20:55;;;;;;;;;;;;;;;4.66;73.28;101117.31;1708541;84;21734;-80
2022/10/17 03:23:22;;;;;;;;;;;;;;;4.64;73.37;101124.23;1708425;82;20169;-80
2022/10/17 03:25:48;;;;;;;;;;;;;;;4.59;73.49;101131.08;1708610;84;20181;-80
2022/10/17 03:28:16;;;;;;;;;;;;;;;4.56;73.59;101140.19;1708351;84;20200;-80
2022/10/17 03:30:43;;;;;;;;;;;;;;;4.52;73.57;101134.45;1708347;84;20265;-81
2022/10/17 03:33:09;;;;;;;;;;;;;;;4.50;73.72;101143.98;1708605;84;21807;-80
2022/10/17 03:35:37;;;;;;;;;;;;;;;4.45;73.87;101142.19;1708320;84;20182;-81
2022/10/17 03:38:04;;;;;;;;;;;;;;;4.45;73.99;101144.80;1701083;84;20214;-81
2022/10/17 03:40:30;;;;;;;;;;;;;;;4.43;74.01;101142.56;1695948;84;20469;-79
2022/10/17 03:42:57;;;;;;;;;;;;;;;4.41;74.15;101145.58;1696187;84;20380;-82
2022/10/17 03:45:23;;;;;;;;;;;;;;;4.35;74.19;101145.47;1695547;84;21163;-81
2022/10/17 03:47:50;;;;;;;;;;;;;;;4.33;74.29;101152.39;1695785;84;20143;-80
2022/10/17 03:50:17;;;;;;;;;;;;;;;4.29;74.51;101168.83;1695735;84;20187;-81
2022/10/17 03:52:47;;;;;;;;;;;;;;;4.23;74.64;101164.80;1695757;84;20210;-80
2022/10/17 03:55:15;;;;;;;;;;;;;;;4.18;74.67;101161.24;1696000;84;20190;-81
2022/10/17 03:57:43;;;;;;;;;;;;;;;4.15;74.78;101151.63;1695792;84;21164;-80
2022/10/17 04:00:10;;;;;;;;;;;;;;;4.13;74.80;101157.68;1695794;84;20227;-81
2022/10/17 04:02:44;;;;;;;;;;;;;;;4.09;74.89;101164.56;1695846;84;20254;-80
2022/10/17 04:05:13;;;;;;;;;;;;;;;4.08;74.95;101172.81;1695389;84;20203;-80
2022/10/17 04:07:42;;;;;;;;;;;;;;;4.06;75.00;101167.97;1695706;84;20563;-80
2022/10/17 04:10:09;;;;;;;;;;;;;;;4.03;74.94;101162.70;1697152;84;22291;-80
2022/10/17 04:12:36;;;;;;;;;;;;;;;4.02;74.94;101170.08;1695745;84;20195;-80
2022/10/17 04:15:06;;;;;;;;;;;;;;;3.98;74.97;101159.57;1695858;84;20258;-81
2022/10/17 04:17:33;;;;;;;;;;;;;;;3.98;75.13;101160.44;1695735;84;20466;-80
2022/10/17 04:19:59;;;;;;;;;;;;;;;3.98;75.24;101156.53;1696092;84;20146;-80
2022/10/17 04:22:26;;;;;;;;;;;;;;;3.97;75.24;101157.80;1695920;84;21112;-79
2022/10/17 04:24:52;;;;;;;;;;;;;;;3.97;75.26;101153.89;1695729;84;20253;-79
2022/10/17 04:27:29;;;;;;;;;;;;;;;3.96;75.41;101149.13;1687881;84;20189;-80
2022/10/17 04:29:56;;;;;;;;;;;;;;;3.96;75.37;101137.84;1695964;84;20230;-80
2022/10/17 04:32:24;;;;;;;;;;;;;;;3.97;75.47;101135.27;1696120;84;21080;-81
2022/10/17 04:35:08;;;;;;;;;;;;;;;3.98;75.39;101133.09;1695610;84;21162;-81
2022/10/17 04:37:35;;;;;;;;;;;;;;;3.99;75.56;101125.75;1695892;83;20226;-80
2022/10/17 04:40:04;;;;;;;;;;;;;;;4.04;75.61;101122.80;1695831;84;20574;-82
2022/10/17 04:42:32;;;;;;;;;;;;;;;4.05;75.58;101134.08;1695659;84;20206;-81
2022/10/17 04:44:58;;;;;;;;;;;;;;;4.08;75.67;101136.75;1695913;84;20151;-80
2022/10/17 04:47:25;;;;;;;;;;;;;;;4.11;75.57;101132.91;1696082;84;21122;-82
2022/10/17 04:49:51;;;;;;;;;;;;;;;4.14;75.47;101133.40;1696013;84;20210;-79
2022/10/17 04:52:18;;;;;;;;;;;;;;;4.18;75.42;101131.28;1695954;84;20151;-81
2022/10/17 04:54:50;;;;;;;;;;;;;;;4.20;75.31;101132.18;1696233;84;20804;-81
2022/10/17 04:57:17;;;;;;;;;;;;;;;4.27;75.19;101141.45;1695733;84;20234;-81
2022/10/17 04:59:45;;;;;;;;;;;;;;;4.31;75.06;101137.16;1695688;84;21138;-79
2022/10/17 05:02:14;;;;;;;;;;;;;;;4.38;74.96;101141.61;1695393;84;20183;-81
2022/10/17 05:04:40;;;;;;;;;;;;;;;4.42;74.71;101143.84;1697409;84;20205;-80
2022/10/17 05:07:07;;;;;;;;;;;;;;;4.50;74.53;101149.19;1697334;84;20528;-81
2022/10/17 05:09:52;;;;;;;;;;;;;;;4.56;74.22;101147.56;1696168;84;20250;-78
2022/10/17 05:12:18;;;;;;;;;;;;;;;4.64;73.96;101150.31;1695890;84;21118;-83
2022/10/17 05:14:46;;;;;;;;;;;;;;;4.68;73.65;101154.70;1695783;84;20654;-82
2022/10/17 05:17:13;;;;;;;;;;;;;;;4.73;73.51;101153.48;1695636;84;20564;-79
2022/10/17 05:19:39;;;;;;;;;;;;;;;4.81;72.96;101153.17;1695722;84;20209;-81
2022/10/17 05:22:06;;;;;;;;;;;;;;;4.87;72.50;101148.03;1695745;84;20213;-81
2022/10/17 05:24:33;;;;;;;;;;;;;;;4.93;72.37;101153.79;1695849;84;21507;-79
2022/10/17 05:27:01;;;;;;;;;;;;;;;4.98;72.02;101152.98;1695752;84;20209;-80
2022/10/17 05:29:27;;;;;;;;;;;;;;;5.03;71.77;101155.67;1695895;84;20175;-79
2022/10/17 05:31:55;;;;;;;;;;;;;;;5.07;71.65;101161.37;1695800;84;20513;-80
2022/10/17 05:34:23;;;;;;;;;;;;;;;5.12;71.38;101161.00;1696050;84;20517;-81
2022/10/17 05:36:50;;;;;;;;;;;;;;;5.16;71.25;101161.52;1695932;84;21133;-81
2022/10/17 05:39:18;;;;;;;;;;;;;;;5.20;71.14;101164.60;1695975;84;20435;-82
2022/10/17 05:41:45;;;;;;;;;;;;;;;5.27;71.00;101166.87;1696116;84;20206;-80
2022/10/17 05:44:12;;;;;;;;;;;;;;;5.33;70.64;101156.92;1695710;84;20230;-82
2022/10/17 05:46:40;;;;;;;;;;;;;;;5.39;71.00;101162.23;1696084;84;20150;-80
2022/10/17 05:49:11;;;;;;;;;;;;;;;5.45;70.49;101166.25;1695781;84;21078;-81
2022/10/17 05:51:38;;;;;;;;;;;;;;;5.51;70.21;101165.00;1696229;84;20178;-81
2022/10/17 05:54:06;;;;;;;;;;;;;;;5.58;70.25;101164.64;1695688;84;20179;-82
2022/10/17 05:56:33;;;;;;;;;;;;;;;5.66;70.22;101176.50;1695734;84;20243;-80
2022/10/17 05:59:00;;;;;;;;;;;;;;;5.73;69.98;101177.02;1695790;84;20160;-81
2022/10/17 06:01:45;;;;;;;;;;;;;;;5.79;69.37;101173.62;1695909;84;22005;-82
2022/10/17 06:04:11;;;;;;;;;;;;;;;5.84;68.89;101183.25;1695779;84;20209;-80
2022/10/17 06:06:38;;;;;;;;;;;;;;;5.90;68.84;101178.11;1695818;84;20175;-81
2022/10/17 06:09:05;;;;;;;;;;;;;;;5.97;69.00;101169.04;1695968;84;20395;-82
2022/10/17 06:11:34;;;;;;;;;;;;;;;6.05;68.57;101172.20;1696031;84;20199;-84
2022/10/17 06:14:02;;;;;;;;;;;;;;;6.13;68.30;101184.03;1695737;84;20242;-82
2022/10/17 06:16:29;;;;;;;;;;;;;;;6.22;67.99;101174.09;1695861;84;20214;-82
2022/10/17 06:18:57;;;;;;;;;;;;;;;6.32;67.90;101175.52;1695491;84;20235;-81
2022/10/17 06:21:25;;;;;;;;;;;;;;;6.44;67.46;101179.09;1695942;84;20426;-82
2022/10/17 06:23:53;;;;;;;;;;;;;;;6.56;67.06;101181.83;1696035;84;20143;-82
2022/10/17 06:26:30;;;;;;;;;;;;;;;6.67;66.17;101188.45;1695715;84;21168;-82
2022/10/17 06:28:56;;;;;;;;;;;;;;;6.74;65.92;101191.99;1696057;84;20234;-79
2022/10/17 06:31:24;;;;;;;;;;;;;;;6.81;65.19;101194.69;1695833;84;20225;-82
2022/10/17 06:33:51;;;;;;;;;;;;;;;6.89;65.40;101199.95;1695893;84;20152;-81
2022/10/17 06:36:19;;;;;;;;;;;;;;;6.98;64.53;101203.97;1695923;84;21003;-81
2022/10/17 06:38:46;;;;;;;;;;;;;;;7.08;64.78;101202.30;1701468;84;21106;-79
2022/10/17 06:41:15;;;;;;;;;;;;;;;7.18;64.75;101205.41;1708520;84;20197;-80
2022/10/17 06:43:42;;;;;;;;;;;;;;;7.34;63.90;101212.05;1708559;84;20185;-81
2022/10/17 06:46:28;;;;;;;;;;;;;;;7.44;63.37;101209.92;1708502;84;20167;-80
2022/10/17 06:48:56;;;;;;;;;;;;;;;7.55;62.87;101209.55;1707215;82;20098;-81
2022/10/17 06:51:34;;;;;;;;;;;;;;;7.66;62.58;101204.79;1708276;84;21168;-82
2022/10/17 06:54:02;;;;;;;;;;;;;;;7.77;62.07;101208.34;1708269;84;20174;-80
2022/10/17 06:56:30;;;;;;;;;;;;;;;7.88;61.62;101201.82;1703338;84;20155;-80
2022/10/17 06:59:09;;;;;;;;;;;;;;;8.03;62.08;101211.03;1707595;84;20323;-83
2022/10/17 07:01:36;;;;;;;;;;;;;;;8.17;61.46;101205.41;1708588;84;20230;-81
2022/10/17 07:04:04;;;;;;;;;;;;;;;8.33;60.45;101208.06;1708393;84;21121;-83
2022/10/17 07:06:30;;;;;;;;;;;;;;;8.44;60.53;101207.68;1708278;84;20198;-83
2022/10/17 07:09:01;;;;;;;;;;;;;;;8.58;59.78;101198.95;1708130;84;20276;-82
2022/10/17 07:11:29;;;;;;;;;;;;;;;8.71;58.49;101192.84;1705568;84;20226;-82
2022/10/17 07:13:55;;;;;;;;;;;;;;;8.78;58.24;101191.09;1708259;82;20240;-82
2022/10/17 07:16:23;;;;;;;;;;;;;;;8.86;58.14;101191.52;1708468;84;20178;-81
2022/10/17 07:18:53;;;;;;;;;;;;;;;8.97;57.97;101189.31;1708022;84;20210;-80
2022/10/17 07:21:20;;;;;;;;;;;;;;;9.10;57.05;101196.30;1708615;84;20201;-80
2022/10/17 07:23:46;;;;;;;;;;;;;;;9.22;57.24;101196.27;1708449;84;20230;-84
2022/10/17 07:26:14;;;;;;;;;;;;;;;9.39;56.53;101203.23;1707967;84;20536;-81
2022/10/17 07:28:42;;;;;;;;;;;;;;;9.50;56.47;101209.34;1708334;84;21162;-79
2022/10/17 07:31:13;;;;;;;;;;;;;;;9.64;56.25;101217.17;1707474;82;20659;-83
2022/10/17 07:33:41;;;;;;;;;;;;;;;9.78;55.94;101219.74;1708392;84;20548;-81
2022/10/17 07:36:08;;;;;;;;;;;;;;;9.93;55.49;101211.78;1708249;84;20543;-81
2022/10/17 07:38:35;;;;;;;;;;;;;;;10.06;54.51;101214.38;1708483;84;20472;-81
2022/10/17 07:41:03;;;;;;;;;;;;;;;10.19;54.41;101208.16;1708192;82;21626;-80
2022/10/17 07:43:30;;;;;;;;;;;;;;;10.34;53.10;101209.41;1708317;84;20146;-82
2022/10/17 07:45:59;;;;;;;;;;;;;;;10.45;52.74;101207.15;1708478;84;20178;-80
2022/10/17 07:48:26;;;;;;;;;;;;;;;10.56;51.80;101206.64;1708552;84;20195;-80
2022/10/17 07:50:55;;;;;;;;;;;;;;;10.65;50.78;101204.38;1708503;84;20271;-82
2022/10/17 07:53:21;;;;;;;;;;;;;;;10.72;49.26;101199.03;1708215;84;20957;-82
2022/10/17 07:55:48;;;;;;;;;;;;;;;10.76;49.57;101202.54;1708762;84;20155;-80
2022/10/17 07:58:14;;;;;;;;;;;;;;;10.83;49.39;101196.78;1708614;84;20139;-84
2022/10/17 08:00:41;;;;;;;;;;;;;;;10.88;48.52;101198.92;1708773;84;20234;-83
2022/10/17 08:03:09;;;;;;;;;;;;;;;10.93;48.57;101195.80;1708460;84;20205;-84
2022/10/17 08:05:36;;;;;;;;;;;;;;;11.00;48.29;101193.53;1708704;83;21134;-82
2022/10/17 08:08:03;;;;;;;;;;;;;;;11.08;48.52;101186.89;1708412;84;20170;-80
2022/10/17 08:10:30;;;;;;;;;;;;;;;11.21;48.27;101195.52;1708482;84;20205;-80
2022/10/17 08:12:56;;;;;;;;;;;;;;;11.31;48.83;101190.58;1708601;84;20290;-81
2022/10/17 08:15:24;;;;;;;;;;;;;;;11.42;47.69;101182.12;1708843;84;20205;-83
2022/10/17 08:17:50;;;;;;;;;;;;;;;11.47;47.43;101181.62;1708756;84;21041;-83
2022/10/17 08:20:18;;;;;;;;;;;;;;;11.57;47.26;101185.02;1708379;84;20257;-83
2022/10/17 08:22:51;;;;;;;;;;;;;;;11.69;47.29;101189.27;1708765;84;20170;-80
2022/10/17 08:25:17;;;;;;;;;;;;;;;11.81;46.87;101181.20;1708399;84;20441;-80
2022/10/17 08:27:45;;;;;;;;;;;;;;;11.89;46.06;101183.75;1708782;84;20547;-83
2022/10/17 08:30:12;;;;;;;;;;;;;;;11.92;46.07;101176.25;1708393;84;21122;-84
2022/10/17 08:32:38;;;;;;;;;;;;;;;11.96;46.66;101186.75;1708153;82;20316;-83
2022/10/17 08:35:05;;;;;;;;;;;;;;;12.06;45.71;101186.19;1708484;84;20671;-82
2022/10/17 08:37:32;;;;;;;;;;;;;;;12.12;46.07;101178.62;1708790;84;20244;-81
2022/10/17 08:39:58;;;;;;;;;;;;;;;12.23;46.70;101174.92;1708601;84;20492;-80
2022/10/17 08:42:43;;;;;;;;;;;;;;;12.38;46.31;101167.69;1708457;84;21241;-82
2022/10/17 08:45:41;;;;;;;;;;;;;;;12.50;45.55;101167.48;1708106;84;20412;-82
2022/10/17 08:48:10;;;;;;;;;;;;;;;12.59;45.07;101163.39;1668562;86;20240;-79
2022/10/17 08:50:55;;;;;;;;;;;;;;;12.65;44.72;101159.76;1679880;84;20173;-80
2022/10/17 08:53:43;;;;;;;;;;;;;;;12.73;44.78;101153.91;1708544;84;20267;-80
2022/10/17 08:56:16;;;;;;;;;;;;;;;12.84;44.04;101153.70;1708651;82;21126;-81
2022/10/17 08:58:42;;;;;;;;;;;;;;;12.86;43.77;101154.57;1708872;84;20197;-80
2022/10/17 09:01:29;;;;;;;;;;;;;;;12.88;44.21;101146.59;1708288;84;20197;-80
2022/10/17 09:04:11;;;;;;;;;;;;;;;12.95;43.94;101162.77;1708727;84;20201;-81
2022/10/17 09:06:47;;;;;;;;;;;;;;;13.04;43.18;101159.09;1708507;84;20179;-79
2022/10/17 09:09:26;;;;;;;;;;;;;;;13.09;42.67;101159.88;1708378;84;21138;-81
2022/10/17 09:12:06;;;;;;;;;;;;;;;13.10;43.17;101172.20;1708036;84;20186;-83
2022/10/17 09:14:37;;;;;;;;;;;;;;;13.11;43.39;101163.34;1707978;82;20492;-84
2022/10/17 09:17:09;;;;;;;;;;;;;;;13.20;43.30;101173.30;1708095;84;20201;-81
2022/10/17 09:19:38;;;;;;;;;;;;;;;13.27;42.64;101183.31;1708073;84;20473;-81
2022/10/17 09:22:15;;;;;;;;;;;;;;;13.33;43.32;101174.41;1708447;84;21151;-83
2022/10/17 09:24:46;;;;;;;;;;;;;;;13.43;43.01;101168.50;1708606;84;20695;-81
2022/10/17 09:27:16;;;;;;;;;;;;;;;13.55;43.09;101169.13;1708441;84;20209;-80
2022/10/17 09:29:42;;;;;;;;;;;;;;;13.71;42.76;101163.05;1708003;82;20222;-83
2022/10/17 09:32:13;;;;;;;;;;;;;;;13.81;42.42;101160.23;1708459;84;20241;-79
2022/10/17 09:34:40;;;;;;;;;;;;;;;13.91;42.52;101161.77;1708083;84;21175;-82
2022/10/17 09:37:11;;;;;;;;;;;;;;;14.01;42.16;101159.80;1708370;82;20209;-78
2022/10/17 09:39:37;;;;;;;;;;;;;;;14.04;41.50;101146.03;1708258;83;20201;-79
2022/10/17 09:42:04;;;;;;;;;;;;;;;14.09;42.40;101136.21;1699860;84;20449;-82
2022/10/17 09:44:34;;;;;;;;;;;;;;;14.25;41.91;101150.41;1708277;84;20185;-80
2022/10/17 09:47:05;;;;;;;;;;;;;;;14.34;41.34;101159.47;1708283;84;21102;-81
2022/10/17 09:49:37;;;;;;;;;;;;;;;14.39;41.31;101153.61;1708120;84;20457;-80
2022/10/17 09:52:07;;;;;;;;;;;;;;;14.46;41.12;101149.89;1708175;84;20225;-81
2022/10/17 09:54:37;;;;;;;;;;;;;;;14.52;40.63;101153.30;1708507;84;20512;-79
2022/10/17 09:57:05;;;;;;;;;;;;;;;14.56;40.61;101150.97;1708405;84;20551;-81
2022/10/17 09:59:35;;;;;;;;;;;;;;;14.63;40.31;101158.77;1708341;84;21737;-80
2022/10/17 10:02:14;;;;;;;;;;;;;;;14.72;39.66;101160.31;1708373;84;20216;-81
2022/10/17 10:04:54;;;;;;;;;;;;;;;14.74;39.75;101150.54;1708348;84;20504;-82
2022/10/17 10:07:21;;;;;;;;;;;;;;;14.75;39.01;101146.99;1706785;84;20142;-80
2022/10/17 10:09:49;;;;;;;;;;;;;;;14.73;39.34;101147.50;1708376;84;20248;-85
2022/10/17 10:12:27;;;;;;;;;;;;;;;14.80;38.58;101141.12;1708280;84;21162;-81
2022/10/17 10:14:53;;;;;;;;;;;;;;;14.78;38.52;101142.94;1708273;84;20197;-82
2022/10/17 10:17:29;;;;;;;;;;;;;;;14.81;38.91;101126.97;1708314;84;20197;-80
2022/10/17 10:19:56;;;;;;;;;;;;;;;14.98;38.79;101128.31;1708417;83;20260;-81
2022/10/17 10:22:24;;;;;;;;;;;;;;;15.13;38.79;101128.31;1709160;84;20638;-82
2022/10/17 10:25:14;;;;;;;;;;;;;;;15.20;37.86;101131.23;1708452;84;21106;-79
2022/10/17 10:27:43;;;;;;;;;;;;;;;15.20;38.00;101128.12;1707489;84;20218;-83
2022/10/17 10:30:24;;;;;;;;;;;;;;;15.31;37.90;101123.82;1708538;84;20182;-80
2022/10/17 10:32:51;;;;;;;;;;;;;;;15.43;37.96;101122.59;1708316;84;20737;-79
2022/10/17 10:35:23;;;;;;;;;;;;;;;15.47;37.27;101124.27;1708488;84;20201;-83
2022/10/17 10:37:54;;;;;;;;;;;;;;;15.53;36.70;101131.16;1708390;84;21170;-79
2022/10/17 10:40:26;;;;;;;;;;;;;;;15.56;36.61;101137.24;1701053;83;20345;-81
2022/10/17 10:42:54;;;;;;;;;;;;;;;15.59;36.23;101137.16;1695781;84;20206;-81
2022/10/17 10:45:30;;;;;;;;;;;;;;;15.60;36.43;101152.17;1695884;84;20238;-81
2022/10/17 10:47:58;;;;;;;;;;;;;;;15.56;36.64;101139.89;1694583;84;20193;-78
2022/10/17 10:50:33;;;;;;;;;;;;;;;15.58;36.15;101143.40;1695911;84;21118;-83
2022/10/17 10:53:15;;;;;;;;;;;;;;;15.63;35.82;101143.23;1695847;84;20206;-80
2022/10/17 10:55:50;;;;;;;;;;;;;;;15.71;35.91;101148.33;1696625;84;20210;-82
2022/10/17 10:58:26;;;;;;;;;;;;;;;15.78;36.03;101147.26;1696462;84;20899;-81
2022/10/17 11:00:53;;;;;;;;;;;;;;;15.83;36.04;101147.98;1696179;84;20194;-80
2022/10/17 11:03:22;;;;;;;;;;;;;;;15.89;36.46;101148.28;1695978;84;21843;-81
2022/10/17 11:05:52;;;;;;;;;;;;;;;16.03;35.50;101155.34;1683804;84;20210;-81
2022/10/17 11:08:36;;;;;;;;;;;;;;;16.13;35.49;101142.65;1695629;84;20218;-82
2022/10/17 11:11:17;;;;;;;;;;;;;;;16.21;35.55;101137.97;1695790;84;20132;-80
2022/10/17 11:13:48;;;;;;;;;;;;;;;16.28;34.77;101125.36;1695680;84;20209;-82
2022/10/17 11:16:24;;;;;;;;;;;;;;;16.24;34.76;101124.59;1696214;84;21853;-82
2022/10/17 11:19:13;;;;;;;;;;;;;;;16.22;35.28;101118.91;1695782;84;20226;-83
2022/10/17 11:21:46;;;;;;;;;;;;;;;16.22;35.39;101112.27;1695733;84;20851;-79
2022/10/17 11:24:22;;;;;;;;;;;;;;;16.33;35.45;101110.14;1695585;84;20187;-77
2022/10/17 11:26:52;;;;;;;;;;;;;;;16.53;34.68;101106.81;1695728;84;20209;-81
2022/10/17 11:29:19;;;;;;;;;;;;;;;16.67;33.71;101099.22;1694241;84;21175;-79
2022/10/17 11:31:48;;;;;;;;;;;;;;;16.70;34.63;101105.77;1695976;84;20210;-82
2022/10/17 11:34:24;;;;;;;;;;;;;;;16.87;34.61;101095.04;1695632;84;20521;-83
2022/10/17 11:36:59;;;;;;;;;;;;;;;17.00;34.28;101091.02;1695982;84;20407;-83
2022/10/17 11:39:41;;;;;;;;;;;;;;;17.04;34.59;101087.31;1696071;84;20501;-81
2022/10/17 11:42:13;;;;;;;;;;;;;;;17.06;34.00;101084.16;1695866;84;21210;-79
2022/10/17 11:44:40;;;;;;;;;;;;;;;17.19;33.76;101077.05;1695788;84;20178;-81
2022/10/17 11:47:16;;;;;;;;;;;;;;;17.36;33.58;101082.59;1695930;84;20167;-81
2022/10/17 11:49:50;;;;;;;;;;;;;;;17.42;33.70;101082.38;1695599;84;20221;-79
2022/10/17 11:52:30;;;;;;;;;;;;;;;17.49;33.49;101072.36;1695706;84;20250;-79
2022/10/17 11:55:02;;;;;;;;;;;;;;;17.42;33.48;101070.39;1695709;84;21163;-83
2022/10/17 11:57:38;;;;;;;;;;;;;;;17.48;33.52;101067.09;1694347;83;20575;-79
2022/10/17 12:00:30;;;;;;;;;;;;;;;17.57;33.35;101077.40;1695654;84;20446;-83
2022/10/17 12:03:09;;;;;;;;;;;;;;;17.51;32.84;101082.47;1695752;84;20199;-83
2022/10/17 12:05:59;;;;;;;;;;;;;;;17.43;33.86;101073.48;1695724;84;20194;-79
2022/10/17 12:08:45;;;;;;;;;;;;;;;17.43;33.31;101074.80;1695720;84;22149;-81
2022/10/17 12:11:23;;;;;;;;;;;;;;;17.46;33.56;101061.83;1695969;84;20163;-82
2022/10/17 12:13:52;;;;;;;;;;;;;;;17.67;33.67;101060.14;1695498;84;20213;-80
2022/10/17 12:16:23;;;;;;;;;;;;;;;17.88;32.56;101060.23;1695672;84;20139;-85
2022/10/17 12:19:05;;;;;;;;;;;;;;;17.87;32.98;101058.49;1693757;84;20532;-79
2022/10/17 12:22:09;;;;;;;;;;;;;;;17.80;32.81;101060.05;1695187;83;21101;-81
2022/10/17 12:24:41;;;;;;;;;;;;;;;17.76;33.32;101039.80;1695579;84;20597;-83
2022/10/17 12:27:23;;;;;;;;;;;;;;;17.87;32.61;101035.86;1695752;84;20254;-81
2022/10/17 12:29:49;;;;;;;;;;;;;;;17.87;32.76;101039.85;1673712;84;20218;-82
2022/10/17 12:32:16;;;;;;;;;;;;;;;17.84;33.42;101046.16;1696039;84;20233;-81
2022/10/17 12:34:53;;;;;;;;;;;;;;;17.89;32.56;101048.67;1695889;84;21160;-83
2022/10/17 12:37:54;;;;;;;;;;;;;;;17.86;32.69;101053.61;1695878;84;20218;-81
2022/10/17 12:40:42;;;;;;;;;;;;;;;17.81;31.92;101041.80;1699329;84;20454;-81
2022/10/17 12:43:18;;;;;;;;;;;;;;;17.85;31.94;101038.55;1708363;82;20213;-80
2022/10/17 12:46:00;;;;;;;;;;;;;;;18.08;31.98;101054.10;1708311;84;20226;-78
2022/10/17 12:48:39;;;;;;;;;;;;;;;18.32;31.12;101042.39;1708454;84;21832;-81
2022/10/17 12:51:14;;;;;;;;;;;;;;;18.74;31.73;101043.27;1708312;84;20222;-82
2022/10/17 12:53:44;;;;;;;;;;;;;;;19.42;31.01;101033.09;1708444;84;20205;-82
2022/10/17 12:56:18;;;;;;;;;;;;;;;20.50;29.30;101030.45;1708438;84;20221;-81
2022/10/17 12:58:46;;;;;;;;;;;;;;;21.80;27.66;101025.66;1708451;84;20581;-83
2022/10/17 13:01:31;;;;;;;;;;;;;;;22.82;24.88;101026.36;1708502;84;21158;-83
2022/10/17 13:03:57;;;;;;;;;;;;;;;23.24;24.54;101021.97;1708547;84;20749;-80